Time;durP1;ratioP1;P1;durP2;ratioP2;P2;SDS_P1;SDS_P2;PMS_P1;PMS_P2;Temp;Humidity;BMP_temperature;BMP_pressure;BME280_temperature;BME280_humidity;BME280_pressure;Samples;Min_cycle;Max_cycle;Signal;HPM_P1;HPM_P2
2021/07/06 00:01:05;;;;;;;24.30;22.50;;;;;;;16.53;72.91;93117.66;5104313;28;20023;-51
2021/07/06 00:03:31;;;;;;;23.63;21.80;;;;;;;16.50;72.62;93116.78;5111640;28;20050;-53
2021/07/06 00:05:56;;;;;;;26.83;24.70;;;;;;;16.58;73.23;93117.34;5112079;28;20024;-52
2021/07/06 00:08:22;;;;;;;33.13;26.83;;;;;;;16.57;73.74;93120.69;5111700;28;20030;-49
2021/07/06 00:10:47;;;;;;;26.50;24.52;;;;;;;16.65;73.84;93121.97;5111643;27;20023;-55
2021/07/06 00:13:13;;;;;;;24.92;23.05;;;;;;;16.64;72.98;93120.53;5111823;28;20563;-55
2021/07/06 00:15:39;;;;;;;25.92;24.13;;;;;;;16.62;73.38;93120.38;5111887;28;20050;-56
2021/07/06 00:18:04;;;;;;;26.42;24.60;;;;;;;16.65;73.51;93115.69;5110627;28;20021;-55
2021/07/06 00:20:30;;;;;;;27.38;25.38;;;;;;;16.68;73.53;93120.78;5110417;28;20092;-56
2021/07/06 00:22:58;;;;;;;26.65;24.55;;;;;;;16.56;73.62;93099.75;5109891;28;20019;-56
2021/07/06 00:25:25;;;;;;;25.48;23.77;;;;;;;16.74;72.83;93122.53;5109524;28;20027;-55
2021/07/06 00:27:51;;;;;;;23.52;21.83;;;;;;;16.56;72.66;93096.97;5109471;28;20028;-55
2021/07/06 00:30:17;;;;;;;23.85;21.98;;;;;;;16.55;72.92;93110.16;5109991;28;20027;-56
2021/07/06 00:32:43;;;;;;;20.98;19.45;;;;;;;16.62;72.75;93109.25;5110032;28;20020;-56
2021/07/06 00:35:09;;;;;;;23.60;21.90;;;;;;;16.61;72.90;93116.13;5109913;28;20028;-56
2021/07/06 00:37:35;;;;;;;23.60;21.52;;;;;;;16.60;72.95;93119.53;5109469;28;20054;-56
2021/07/06 00:40:01;;;;;;;23.63;22.02;;;;;;;16.59;73.21;93118.03;5108596;28;20024;-56
2021/07/06 00:42:27;;;;;;;24.48;22.77;;;;;;;16.63;73.32;93112.75;5109539;28;20031;-56
2021/07/06 00:44:53;;;;;;;25.17;23.27;;;;;;;16.60;73.55;93120.25;5098963;28;20024;-56
2021/07/06 00:47:34;;;;;;;24.55;22.92;;;;;;;16.70;73.66;93127.84;5089277;28;20020;-52
2021/07/06 00:50:00;;;;;;;26.15;24.45;;;;;;;16.68;74.08;93120.03;5088739;28;20030;-51
2021/07/06 00:52:26;;;;;;;27.80;25.90;;;;;;;16.72;73.98;93119.59;5088816;28;20031;-50
2021/07/06 00:54:52;;;;;;;26.67;24.77;;;;;;;16.65;74.37;93118.47;5089193;28;20051;-51
2021/07/06 00:57:17;;;;;;;27.38;25.27;;;;;;;16.70;74.02;93120.19;5088334;28;20024;-51
2021/07/06 00:59:43;;;;;;;27.92;26.00;;;;;;;16.75;73.91;93115.59;5089634;28;20028;-50
2021/07/06 01:02:08;;;;;;;27.27;25.25;;;;;;;16.80;73.99;93120.88;5108698;28;20100;-54
2021/07/06 01:04:33;;;;;;;26.45;24.35;;;;;;;16.69;73.70;93113.16;5108892;28;20020;-51
2021/07/06 01:06:59;;;;;;;27.88;25.65;;;;;;;16.78;74.03;93114.41;5109148;28;20040;-52
2021/07/06 01:09:24;;;;;;;29.02;26.92;;;;;;;16.80;73.73;93118.06;5110660;28;20035;-54
2021/07/06 01:11:50;;;;;;;29.48;26.70;;;;;;;16.80;73.74;93111.75;5107030;28;20058;-53
2021/07/06 01:14:18;;;;;;;28.00;25.58;;;;;;;16.80;74.18;93117.34;5108665;27;20034;-54
2021/07/06 01:16:45;;;;;;;31.00;28.20;;;;;;;16.81;74.01;93125.09;5107419;28;20027;-50
2021/07/06 01:19:14;;;;;;;30.52;28.13;;;;;;;16.74;74.48;93120.44;5108493;28;20039;-53
2021/07/06 01:21:40;;;;;;;32.67;29.75;;;;;;;16.74;74.77;93133.69;5108974;28;20035;-50
2021/07/06 01:24:05;;;;;;;32.00;28.88;;;;;;;16.68;74.98;93134.72;5108695;28;20515;-53
2021/07/06 01:26:30;;;;;;;34.35;30.55;;;;;;;16.70;74.95;93139.69;5109010;28;20023;-51
2021/07/06 01:28:56;;;;;;;35.72;32.33;;;;;;;16.76;74.85;93136.59;5108626;28;20413;-52
2021/07/06 01:31:21;;;;;;;34.67;31.05;;;;;;;16.83;75.03;93135.69;5110149;28;20023;-53
2021/07/06 01:33:47;;;;;;;34.35;30.98;;;;;;;16.86;75.20;93134.47;5110103;28;20020;-51
2021/07/06 01:36:14;;;;;;;37.50;32.03;;;;;;;16.87;75.21;93127.56;5110437;28;20050;-54
2021/07/06 01:38:42;;;;;;;56.15;32.88;;;;;;;16.85;74.86;93133.00;5110192;28;20084;-51
2021/07/06 01:41:07;;;;;;;38.38;34.55;;;;;;;16.84;75.14;93131.53;5110118;28;20500;-53
2021/07/06 01:43:33;;;;;;;45.67;32.03;;;;;;;16.79;75.55;93141.69;5109936;28;20067;-50
2021/07/06 01:45:58;;;;;;;37.40;32.10;;;;;;;16.79;75.63;93129.81;5090394;28;20020;-52
2021/07/06 01:48:24;;;;;;;35.33;31.75;;;;;;;16.82;76.06;93134.94;5091030;28;20023;-51
2021/07/06 01:50:50;;;;;;;33.15;27.60;;;;;;;16.77;76.39;93130.41;5110209;28;20061;-52
2021/07/06 01:53:21;;;;;;;33.75;30.10;;;;;;;16.83;76.07;93130.09;5110109;28;20378;-53
2021/07/06 01:55:48;;;;;;;38.08;30.33;;;;;;;16.86;76.25;93140.78;5109524;28;20493;-50
2021/07/06 01:58:16;;;;;;;40.63;31.45;;;;;;;16.85;76.07;93133.00;5109089;28;20520;-50
2021/07/06 02:00:47;;;;;;;37.00;31.23;;;;;;;16.78;75.96;93131.16;5100086;28;20016;-52
2021/07/06 02:03:13;;;;;;;34.35;30.30;;;;;;;16.78;76.24;93117.94;5089199;28;20048;-52
2021/07/06 02:05:47;;;;;;;39.08;32.72;;;;;;;16.82;75.99;93126.56;5089715;28;20584;-50
2021/07/06 02:08:18;;;;;;;49.55;29.13;;;;;;;16.83;76.04;93133.59;5107366;28;20034;-54
2021/07/06 02:10:45;;;;;;;32.50;29.25;;;;;;;16.79;76.51;93124.22;5113888;28;20038;-56
2021/07/06 02:13:20;;;;;;;34.72;30.98;;;;;;;16.84;76.40;93128.75;5114136;28;20540;-54
2021/07/06 02:15:46;;;;;;;30.60;27.42;;;;;;;16.83;76.38;93144.03;5113920;28;20507;-51
2021/07/06 02:18:20;;;;;;;38.55;28.33;;;;;;;16.79;76.72;93140.97;5113256;28;20085;-52
2021/07/06 02:20:50;;;;;;;30.80;27.63;;;;;;;16.77;76.98;93138.78;5113707;28;20024;-52
2021/07/06 02:23:15;;;;;;;31.65;28.27;;;;;;;16.74;77.14;93133.69;5113397;28;20023;-51
2021/07/06 02:25:45;;;;;;;32.40;27.83;;;;;;;16.77;77.33;93140.81;5113287;28;20025;-51
2021/07/06 02:28:10;;;;;;;39.08;32.10;;;;;;;16.63;77.94;93140.63;5113252;28;20104;-50
2021/07/06 02:30:36;;;;;;;31.08;28.08;;;;;;;16.72;77.73;93136.34;5113711;28;20548;-50
2021/07/06 02:33:01;;;;;;;30.83;27.92;;;;;;;16.67;77.67;93135.31;5113976;27;20020;-52
2021/07/06 02:35:27;;;;;;;27.52;24.65;;;;;;;16.67;77.78;93144.41;5113925;28;20024;-51
2021/07/06 02:37:54;;;;;;;31.20;26.13;;;;;;;16.83;77.72;93146.81;5113596;28;20027;-49
2021/07/06 02:40:20;;;;;;;30.42;25.85;;;;;;;16.86;77.13;93140.78;5113945;28;20028;-51
2021/07/06 02:42:46;;;;;;;31.70;27.02;;;;;;;16.88;77.27;93137.38;5113723;28;20401;-51
2021/07/06 02:45:13;;;;;;;29.17;26.30;;;;;;;16.89;77.24;93147.22;5107460;28;20054;-57
2021/07/06 02:47:38;;;;;;;28.50;25.25;;;;;;;16.84;77.42;93160.16;5093006;28;20020;-54
2021/07/06 02:50:06;;;;;;;32.05;26.33;;;;;;;16.87;77.36;93155.44;5100621;28;20020;-54
2021/07/06 02:52:32;;;;;;;27.98;24.92;;;;;;;16.96;77.23;93163.00;5113273;28;20492;-54
2021/07/06 02:54:57;;;;;;;28.52;25.52;;;;;;;16.96;76.73;93165.78;5113442;28;20023;-53
2021/07/06 02:57:39;;;;;;;28.73;25.67;;;;;;;16.91;77.39;93162.03;5113128;28;20027;-54
2021/07/06 03:00:22;;;;;;;29.13;25.73;;;;;;;17.01;76.65;93173.09;5108902;28;20016;-52
2021/07/06 03:02:51;;;;;;;31.13;26.02;;;;;;;17.07;76.80;93171.44;5092540;28;20040;-49
2021/07/06 03:05:18;;;;;;;37.05;28.65;;;;;;;17.06;76.58;93169.25;5092900;28;20074;-52
2021/07/06 03:07:44;;;;;;;32.95;29.50;;;;;;;17.10;76.44;93163.94;5092471;28;20186;-51
2021/07/06 03:10:22;;;;;;;39.35;30.17;;;;;;;17.01;76.92;93182.22;5092582;28;20088;-52
2021/07/06 03:12:48;;;;;;;36.63;29.02;;;;;;;17.10;76.89;93180.69;5111142;28;20135;-53
2021/07/06 03:15:15;;;;;;;37.65;30.13;;;;;;;17.08;77.05;93188.91;5105311;28;20095;-54
2021/07/06 03:17:41;;;;;;;39.25;28.55;;;;;;;17.06;76.79;93180.41;5097157;28;20032;-52
2021/07/06 03:20:09;;;;;;;42.78;28.52;;;;;;;17.02;77.02;93180.88;5100156;28;20028;-54
2021/07/06 03:22:34;;;;;;;36.72;28.23;;;;;;;16.94;77.46;93179.59;5097311;28;20477;-49
2021/07/06 03:25:00;;;;;;;33.92;29.00;;;;;;;16.89;77.97;93192.53;5110297;28;20026;-48
2021/07/06 03:27:25;;;;;;;41.30;32.15;;;;;;;16.98;77.55;93188.25;5111054;28;20031;-51
2021/07/06 03:29:52;;;;;;;35.42;29.40;;;;;;;16.98;77.68;93191.75;5110968;28;20488;-50
2021/07/06 03:32:18;;;;;;;37.97;28.45;;;;;;;17.06;77.57;93195.09;5110910;28;20454;-47
2021/07/06 03:34:44;;;;;;;33.60;27.15;;;;;;;17.01;77.62;93196.16;5110762;28;20023;-52
2021/07/06 03:37:09;;;;;;;26.92;24.27;;;;;;;17.03;77.71;93196.28;5110971;28;20540;-49
2021/07/06 03:39:36;;;;;;;33.63;25.83;;;;;;;17.12;77.38;93205.91;5111414;28;20030;-50
2021/07/06 03:42:03;;;;;;;29.00;24.65;;;;;;;17.07;77.80;93199.34;5112314;28;20024;-50
2021/07/06 03:44:29;;;;;;;37.28;27.13;;;;;;;17.11;77.66;93201.66;5104856;28;20062;-51
2021/07/06 03:46:54;;;;;;;35.72;25.92;;;;;;;17.13;77.61;93204.59;5092102;28;20023;-51
2021/07/06 03:49:19;;;;;;;29.02;25.95;;;;;;;17.19;77.31;93207.78;5092035;28;20088;-49
2021/07/06 03:51:45;;;;;;;39.22;26.80;;;;;;;17.11;77.33;93204.44;5091913;28;20467;-50
2021/07/06 03:54:10;;;;;;;31.05;26.27;;;;;;;17.12;77.81;93208.72;5091543;28;20713;-50
2021/07/06 03:56:36;;;;;;;33.60;28.15;;;;;;;17.13;78.24;93208.09;5090611;28;20103;-49
2021/07/06 03:59:01;;;;;;;41.28;27.80;;;;;;;17.18;78.01;93209.09;5091422;28;20024;-52
2021/07/06 04:01:27;;;;;;;36.45;27.95;;;;;;;17.17;77.84;93208.38;5107435;28;20476;-47
2021/07/06 04:03:52;;;;;;;38.90;31.75;;;;;;;17.04;78.24;93199.81;5112026;28;20019;-49
2021/07/06 04:06:18;;;;;;;36.33;31.88;;;;;;;17.15;78.49;93211.03;5112079;28;20019;-47
2021/07/06 04:08:43;;;;;;;49.63;33.38;;;;;;;17.21;78.29;93219.06;5111455;28;20045;-48
2021/07/06 04:11:09;;;;;;;34.63;31.00;;;;;;;17.20;78.32;93217.59;5111668;28;20035;-47
2021/07/06 04:13:34;;;;;;;33.53;29.83;;;;;;;17.21;78.30;93222.59;5111816;28;20023;-51
2021/07/06 04:15:59;;;;;;;36.17;27.30;;;;;;;17.21;78.45;93224.66;5111880;27;20476;-51
2021/07/06 04:18:25;;;;;;;42.47;28.75;;;;;;;17.28;78.70;93230.03;5111825;28;20027;-53
2021/07/06 04:20:50;;;;;;;32.50;28.20;;;;;;;17.27;78.77;93230.63;5111869;28;20039;-48
2021/07/06 04:23:16;;;;;;;41.83;29.02;;;;;;;17.24;79.22;93229.03;5111782;28;20531;-53
2021/07/06 04:25:41;;;;;;;30.90;27.35;;;;;;;17.23;79.23;93228.31;5111763;28;20484;-55
2021/07/06 04:28:07;;;;;;;38.67;29.88;;;;;;;17.28;79.50;93235.59;5111803;28;20043;-48
2021/07/06 04:30:32;;;;;;;34.47;30.80;;;;;;;17.35;78.98;93243.03;5106215;28;20027;-50
2021/07/06 04:32:57;;;;;;;33.72;29.02;;;;;;;17.37;78.77;93237.59;5096728;28;20036;-53
2021/07/06 04:35:23;;;;;;;36.90;30.92;;;;;;;17.51;78.76;93251.03;5091005;28;20024;-54
2021/07/06 04:37:49;;;;;;;40.03;29.55;;;;;;;17.51;78.53;93246.19;5103219;28;20078;-48
2021/07/06 04:40:15;;;;;;;36.28;31.45;;;;;;;17.53;78.73;93253.97;5090870;28;20063;-47
2021/07/06 04:42:41;;;;;;;39.35;30.85;;;;;;;17.62;78.55;93261.53;5091153;28;20030;-49
2021/07/06 04:45:07;;;;;;;34.40;30.48;;;;;;;17.66;78.57;93261.81;5090683;28;20027;-49
2021/07/06 04:47:33;;;;;;;41.28;31.17;;;;;;;17.69;79.11;93263.41;5090783;28;20035;-48
2021/07/06 04:49:58;;;;;;;45.40;31.15;;;;;;;17.67;78.91;93250.03;5109999;28;20020;-49
2021/07/06 04:52:24;;;;;;;35.72;30.67;;;;;;;17.75;79.26;93258.19;5111335;28;20409;-49
2021/07/06 04:54:49;;;;;;;32.58;29.25;;;;;;;17.80;79.13;93260.66;5111326;28;20420;-48
2021/07/06 04:57:14;;;;;;;33.65;30.33;;;;;;;17.83;79.12;93270.63;5111176;28;20652;-48
2021/07/06 04:59:40;;;;;;;33.60;27.67;;;;;;;17.78;79.71;93265.41;5109624;28;20041;-47
2021/07/06 05:02:06;;;;;;;35.35;31.75;;;;;;;17.70;79.75;93253.69;5090446;28;20084;-49
2021/07/06 05:04:33;;;;;;;31.35;28.05;;;;;;;17.83;80.00;93275.47;5089563;28;20024;-48
2021/07/06 05:19:48;;;;;;;46.47;43.17;;;;;;;18.69;76.12;93277.47;5085471;27;21031;-54
2021/07/06 05:22:13;;;;;;;48.25;44.65;;;;;;;18.58;76.49;93281.66;5085856;28;20130;-53
2021/07/06 05:24:39;;;;;;;40.63;37.47;;;;;;;18.48;76.92;93271.94;5085555;28;20024;-55
2021/07/06 05:27:04;;;;;;;39.35;36.10;;;;;;;18.55;76.99;93284.97;5085610;28;20026;-59
2021/07/06 05:29:30;;;;;;;35.38;32.58;;;;;;;18.58;76.68;93283.75;5086638;28;20035;-49
2021/07/06 05:31:55;;;;;;;33.38;30.45;;;;;;;18.57;76.83;93282.28;5102618;28;20067;-50
2021/07/06 05:34:20;;;;;;;33.88;30.88;;;;;;;18.57;77.01;93282.28;5086573;28;20028;-58
2021/07/06 05:36:48;;;;;;;33.00;30.35;;;;;;;18.58;76.84;93292.16;5086780;28;20074;-55
2021/07/06 05:39:13;;;;;;;33.60;30.70;;;;;;;18.58;76.96;93290.06;5086463;28;20501;-55
2021/07/06 05:41:39;;;;;;;34.50;31.30;;;;;;;18.61;77.11;93291.66;5086669;28;20085;-55
2021/07/06 05:44:04;;;;;;;36.20;32.90;;;;;;;18.60;77.25;93292.28;5085708;28;20077;-53
2021/07/06 05:46:30;;;;;;;33.35;30.20;;;;;;;18.65;77.20;93296.75;5085015;28;20035;-52
2021/07/06 05:48:55;;;;;;;33.60;30.70;;;;;;;18.65;77.37;93302.34;5086433;28;20074;-55
2021/07/06 05:51:22;;;;;;;36.05;32.67;;;;;;;18.59;77.17;93301.97;5086475;28;20385;-51
2021/07/06 05:53:49;;;;;;;33.83;30.92;;;;;;;18.62;76.80;93303.56;5085963;28;20039;-53
2021/07/06 05:56:18;;;;;;;34.70;31.98;;;;;;;18.68;76.85;93304.69;5085114;28;20024;-55
2021/07/06 05:58:44;;;;;;;33.08;30.38;;;;;;;18.80;76.74;93315.88;5085877;28;20073;-55
2021/07/06 06:01:16;;;;;;;109.07;101.35;;;;;;;18.82;76.23;93316.00;5086279;28;20103;-55
2021/07/06 06:03:41;;;;;;;203.73;184.27;;;;;;;18.93;76.87;93315.28;5086229;28;20039;-55
2021/07/06 06:06:08;;;;;;;38.70;35.90;;;;;;;18.95;76.73;93318.19;5085932;28;20485;-54
2021/07/06 06:08:33;;;;;;;91.65;83.95;;;;;;;18.97;76.14;93317.59;5086019;28;20024;-53
2021/07/06 06:10:59;;;;;;;35.50;32.80;;;;;;;19.04;75.88;93317.34;5085635;28;20094;-55
2021/07/06 06:13:24;;;;;;;37.35;34.50;;;;;;;18.83;75.21;93290.22;5086004;28;20100;-54
2021/07/06 06:15:50;;;;;;;35.70;32.83;;;;;;;18.97;75.52;93309.22;5085656;28;20463;-55
2021/07/06 06:18:15;;;;;;;35.72;33.03;;;;;;;19.02;75.83;93306.03;5084989;28;20056;-54
2021/07/06 06:20:40;;;;;;;36.05;33.22;;;;;;;18.86;76.48;93289.00;5072233;28;20016;-55
2021/07/06 06:23:06;;;;;;;33.30;30.80;;;;;;;18.94;76.81;93305.56;5072150;28;20054;-54
2021/07/06 06:25:32;;;;;;;33.60;31.20;;;;;;;19.01;76.35;93303.84;5071893;28;20416;-54
2021/07/06 06:27:58;;;;;;;46.00;43.10;;;;;;;18.91;76.70;93292.78;5071788;28;20024;-54
2021/07/06 06:30:23;;;;;;;33.33;30.98;;;;;;;19.00;77.68;93299.59;5072185;28;20032;-53
2021/07/06 06:32:49;;;;;;;39.03;36.22;;;;;;;19.09;77.89;93298.75;5072071;28;20167;-54
2021/07/06 06:35:14;;;;;;;33.25;30.70;;;;;;;19.22;75.94;93298.13;5071805;28;20060;-56
2021/07/06 06:37:40;;;;;;;36.65;33.95;;;;;;;19.18;76.53;93289.50;5072002;28;20017;-57
2021/07/06 06:40:07;;;;;;;36.08;33.20;;;;;;;19.23;76.32;93294.72;5071443;28;20493;-57
2021/07/06 06:42:32;;;;;;;34.15;31.70;;;;;;;19.25;76.67;93286.44;5071692;28;20048;-51
2021/07/06 06:44:58;;;;;;;35.13;32.67;;;;;;;19.44;76.31;93291.09;5071472;28;20035;-53
2021/07/06 06:47:23;;;;;;;37.53;34.85;;;;;;;19.51;76.07;93281.69;5071733;28;20110;-54
2021/07/06 06:49:49;;;;;;;33.25;30.95;;;;;;;19.52;75.69;93281.09;5071612;28;20397;-55
2021/07/06 06:52:14;;;;;;;34.22;31.60;;;;;;;19.50;76.48;93286.56;5071935;28;20016;-54
2021/07/06 06:54:40;;;;;;;37.22;34.85;;;;;;;19.53;76.98;93290.94;5071292;28;20021;-54
2021/07/06 06:57:06;;;;;;;38.85;36.45;;;;;;;19.61;77.10;93288.63;5071683;28;20105;-54
2021/07/06 06:59:32;;;;;;;58.80;54.90;;;;;;;19.79;75.39;93279.78;5071534;28;20025;-50
2021/07/06 07:04:41;;;;;;;37.65;35.10;;;;;;;19.92;75.94;93276.34;5071805;28;20034;-55
2021/07/06 07:07:07;;;;;;;37.50;35.10;;;;;;;20.04;76.45;93282.63;5071231;28;20013;-49
2021/07/06 07:09:32;;;;;;;35.20;33.03;;;;;;;20.08;76.29;93283.59;5070517;28;20025;-48
2021/07/06 07:11:57;;;;;;;31.85;29.63;;;;;;;20.25;73.90;93279.63;5071116;28;20055;-52
2021/07/06 07:14:23;;;;;;;31.60;29.35;;;;;;;20.26;73.39;93279.03;5070997;28;20033;-49
2021/07/06 07:16:50;;;;;;;31.70;29.52;;;;;;;20.42;74.00;93279.91;5070600;28;20016;-49
2021/07/06 07:19:16;;;;;;;32.58;29.42;;;;;;;20.54;72.42;93281.91;5070727;28;20044;-48
2021/07/06 07:21:41;;;;;;;33.95;30.73;;;;;;;20.63;74.10;93287.38;5071081;28;20099;-48
2021/07/06 07:24:07;;;;;;;41.10;38.75;;;;;;;20.84;70.70;93275.13;5070766;28;20518;-49
2021/07/06 07:26:32;;;;;;;37.60;35.53;;;;;;;20.93;69.55;93277.75;5070763;28;20017;-48
2021/07/06 07:28:58;;;;;;;38.08;35.88;;;;;;;20.96;69.12;93281.41;5071092;28;20029;-48
2021/07/06 07:31:23;;;;;;;27.95;26.15;;;;;;;21.11;68.43;93273.13;5061390;28;20028;-49
2021/07/06 07:33:49;;;;;;;23.55;22.15;;;;;;;21.45;67.25;93276.25;5070615;28;20416;-48
2021/07/06 07:36:14;;;;;;;17.38;16.27;;;;;;;21.79;65.47;93277.97;5070523;28;20234;-49
2021/07/06 07:38:40;;;;;;;15.23;14.13;;;;;;;22.10;64.80;93272.53;5070258;28;20021;-49
2021/07/06 07:41:05;;;;;;;14.63;13.52;;;;;;;22.54;63.11;93273.94;5070500;28;20024;-50
2021/07/06 07:43:31;;;;;;;13.13;12.15;;;;;;;22.89;62.48;93271.34;5070384;28;20052;-50
2021/07/06 07:45:56;;;;;;;10.23;9.52;;;;;;;23.32;59.52;93274.00;5070397;28;20055;-49
2021/07/06 07:48:22;;;;;;;9.77;8.98;;;;;;;23.62;55.92;93272.53;5070606;28;20035;-50
2021/07/06 07:50:48;;;;;;;9.02;8.30;;;;;;;24.01;55.32;93272.78;5070286;28;20033;-49
2021/07/06 07:53:13;;;;;;;35.67;32.38;;;;;;;24.27;52.67;93264.69;5069926;28;20416;-48
2021/07/06 07:55:39;;;;;;;7.88;7.28;;;;;;;24.53;52.35;93270.66;5069255;28;20046;-48
2021/07/06 07:58:04;;;;;;;15.70;8.05;;;;;;;24.82;53.84;93282.44;5070153;28;20013;-50
2021/07/06 08:00:30;;;;;;;7.57;6.82;;;;;;;25.11;51.75;93270.13;5070181;28;20033;-49
2021/07/06 08:02:58;;;;;;;7.10;6.35;;;;;;;25.38;51.39;93278.16;5070065;28;20028;-52
2021/07/06 08:05:24;;;;;;;;;;;;;;;25.52;49.61;93275.91;5070926;28;20020;-54
2021/07/06 08:07:49;;;;;;;6.50;5.88;;;;;;;25.53;48.53;93276.63;5069814;28;19913;-49
2021/07/06 08:10:15;;;;;;;12.07;10.95;;;;;;;25.52;49.59;93269.50;5069792;28;20036;-49
2021/07/06 08:12:40;;;;;;;10.38;7.05;;;;;;;25.66;50.60;93275.69;5069745;28;20039;-51
2021/07/06 08:15:06;;;;;;;7.50;6.72;;;;;;;25.83;49.89;93276.97;5069750;28;20032;-49
2021/07/06 08:17:32;;;;;;;6.45;5.95;;;;;;;25.93;49.03;93272.38;5069135;28;20516;-49
2021/07/06 08:19:59;;;;;;;7.32;6.63;;;;;;;26.03;47.74;93274.84;5070012;28;20025;-49
2021/07/06 08:22:26;;;;;;;6.75;6.10;;;;;;;26.18;47.67;93277.50;5069803;28;20091;-50
2021/07/06 08:24:52;;;;;;;6.68;6.07;;;;;;;26.31;47.63;93268.03;5069924;28;20024;-52
2021/07/06 08:27:18;;;;;;;7.25;6.38;;;;;;;26.45;47.77;93267.75;5069593;28;20028;-49
2021/07/06 08:29:43;;;;;;;7.03;6.38;;;;;;;26.70;47.40;93270.00;5069831;28;20025;-52
2021/07/06 08:32:09;;;;;;;7.53;6.68;;;;;;;27.24;47.37;93279.47;5069790;28;20086;-50
2021/07/06 08:34:34;;;;;;;8.15;5.82;;;;;;;27.50;44.70;93276.69;5069041;28;20028;-51
2021/07/06 08:37:00;;;;;;;12.73;6.80;;;;;;;27.73;44.66;93270.97;5069766;28;20482;-49
2021/07/06 08:39:25;;;;;;;6.30;5.70;;;;;;;27.95;44.53;93256.66;5069532;28;20044;-49
2021/07/06 08:41:51;;;;;;;11.25;7.32;;;;;;;28.08;43.32;93249.91;5069084;28;20024;-50
2021/07/06 08:44:17;;;;;;;12.02;10.88;;;;;;;28.59;42.80;93259.72;5069732;28;20024;-51
2021/07/06 08:46:42;;;;;;;13.70;12.52;;;;;;;28.81;43.99;93263.06;5069504;28;20020;-50
2021/07/06 08:49:11;;;;;;;37.72;33.17;;;;;;;29.34;42.19;93260.06;5068241;28;20024;-53
2021/07/06 08:51:36;;;;;;;;;;;;;;;29.55;41.79;93256.22;5052083;28;20436;-51
2021/07/06 08:54:02;;;;;;;14.33;9.43;;;;;;;29.98;39.70;93267.06;5102335;28;19916;-51
2021/07/06 08:56:27;;;;;;;12.23;11.13;;;;;;;30.11;39.04;93262.31;5069553;28;20074;-54
2021/07/06 08:58:53;;;;;;;7.60;5.40;;;;;;;30.48;37.85;93264.41;5069678;28;20546;-47
2021/07/06 09:01:26;;;;;;;6.60;6.00;;;;;;;30.44;39.17;93266.47;5069382;28;20639;-52
2021/07/06 09:04:05;;;;;;;6.50;5.68;;;;;;;30.47;39.23;93254.41;5069398;28;20461;-52
2021/07/06 09:06:35;;;;;;;12.00;5.05;;;;;;;30.76;36.47;93263.44;5069430;28;20082;-54
2021/07/06 09:09:18;;;;;;;5.10;4.60;;;;;;;30.99;36.09;93265.94;5068371;28;20074;-52
2021/07/06 09:11:48;;;;;;;18.95;6.80;;;;;;;31.65;36.19;93274.03;5068945;28;20032;-50
2021/07/06 09:14:14;;;;;;;4.85;4.15;;;;;;;32.08;35.31;93276.00;5069440;28;20539;-52
2021/07/06 09:16:39;;;;;;;4.55;3.75;;;;;;;32.09;32.26;93275.31;5069034;28;20533;-54
2021/07/06 09:19:20;;;;;;;6.97;5.07;;;;;;;31.31;33.53;93277.13;5069120;28;20158;-48
2021/07/06 09:21:45;;;;;;;10.13;9.18;;;;;;;30.64;33.33;93281.06;5069566;28;20111;-50
2021/07/06 09:24:24;;;;;;;10.80;9.80;;;;;;;30.30;34.85;93286.84;5069068;28;20099;-47
2021/07/06 09:26:50;;;;;;;5.80;3.90;;;;;;;30.15;36.35;93282.31;5068978;28;20047;-50
2021/07/06 09:29:24;;;;;;;4.90;4.60;;;;;;;30.21;34.66;93288.13;5069136;28;20025;-47
2021/07/06 09:31:50;;;;;;;4.97;4.57;;;;;;;30.14;34.97;93280.16;5069433;28;20058;-53
2021/07/06 09:34:16;;;;;;;6.40;4.70;;;;;;;30.30;35.13;93294.69;5069130;28;20024;-46
2021/07/06 09:36:49;;;;;;;5.18;4.78;;;;;;;30.20;34.34;93289.53;5068651;28;20058;-52
2021/07/06 09:39:20;;;;;;;4.65;4.25;;;;;;;29.84;34.62;93283.84;5069206;28;20024;-54
2021/07/06 09:41:53;;;;;;;4.85;3.58;;;;;;;29.96;34.61;93283.38;5068977;28;20044;-56
2021/07/06 09:44:27;;;;;;;4.10;3.80;;;;;;;30.35;35.31;93281.97;5067743;28;20055;-47
2021/07/06 09:46:57;;;;;;;7.38;3.85;;;;;;;30.83;34.41;93282.78;5067555;28;20507;-53
2021/07/06 09:49:26;;;;;;;5.05;3.78;;;;;;;31.04;33.00;93278.88;5068968;28;20024;-55
2021/07/06 09:51:52;;;;;;;4.72;3.83;;;;;;;31.15;33.15;93274.75;5068011;28;20021;-55
2021/07/06 09:54:34;;;;;;;4.80;3.58;;;;;;;30.98;32.29;93275.94;5069435;28;20102;-54
2021/07/06 09:57:12;;;;;;;4.15;3.78;;;;;;;31.19;32.88;93274.09;5070815;28;20063;-53
2021/07/06 09:59:37;;;;;;;;;;;;;;;31.11;32.88;93271.13;5071160;28;20012;-54
2021/07/06 10:02:04;;;;;;;4.07;3.78;;;;;;;31.08;33.61;93278.94;5070657;28;19916;-57
2021/07/06 10:04:30;;;;;;;5.57;3.67;;;;;;;31.11;33.57;93277.56;5072380;28;20030;-57
2021/07/06 10:06:57;;;;;;;4.53;4.15;;;;;;;31.00;33.65;93278.81;5072382;28;20482;-57
2021/07/06 10:09:24;;;;;;;3.72;3.50;;;;;;;30.92;33.23;93255.88;5071868;28;20020;-57
2021/07/06 10:11:50;;;;;;;7.05;4.15;;;;;;;31.08;33.39;93267.53;5071914;28;20047;-57
2021/07/06 10:14:15;;;;;;;4.72;4.18;;;;;;;31.05;31.54;93271.78;5070496;28;20417;-56
2021/07/06 10:16:42;;;;;;;7.50;5.68;;;;;;;31.02;32.81;93267.44;5070179;28;20028;-56
2021/07/06 10:19:07;;;;;;;4.60;4.20;;;;;;;30.96;34.51;93270.19;5070392;28;20708;-55
2021/07/06 10:21:35;;;;;;;13.68;8.75;;;;;;;31.09;33.88;93268.97;5071925;28;20029;-58
2021/07/06 10:24:04;;;;;;;4.45;4.05;;;;;;;31.03;33.21;93260.34;5071673;28;20021;-53
2021/07/06 10:26:31;;;;;;;4.78;4.25;;;;;;;31.27;32.26;93266.34;5070613;28;20099;-58
2021/07/06 10:28:57;;;;;;;4.00;3.60;;;;;;;31.20;32.36;93250.59;5070860;28;20033;-60
2021/07/06 10:31:24;;;;;;;3.60;3.30;;;;;;;31.18;29.72;93269.81;5070761;28;20405;-50
2021/07/06 10:33:51;;;;;;;3.65;3.35;;;;;;;31.12;31.58;93267.56;5071798;28;20020;-53
2021/07/06 10:36:16;;;;;;;5.15;3.80;;;;;;;30.97;33.29;93254.53;5070684;28;20021;-54
2021/07/06 10:38:45;;;;;;;10.73;3.60;;;;;;;31.06;32.53;93278.91;5071765;28;20481;-53
2021/07/06 10:41:21;;;;;;;5.78;3.42;;;;;;;30.98;30.55;93270.22;5071966;28;20043;-55
2021/07/06 10:43:46;;;;;;;3.60;3.30;;;;;;;31.06;31.22;93269.63;5072117;28;20114;-54
2021/07/06 10:46:16;;;;;;;3.47;3.17;;;;;;;30.99;31.00;93265.25;5071653;28;20115;-55
2021/07/06 10:48:43;;;;;;;3.70;3.40;;;;;;;31.14;31.72;93270.47;5071628;28;20460;-56
2021/07/06 10:51:09;;;;;;;3.75;3.45;;;;;;;31.30;31.38;93252.84;5071771;28;20032;-54
2021/07/06 10:53:35;;;;;;;3.97;3.65;;;;;;;31.16;30.50;93256.25;5071312;28;20405;-50
2021/07/06 10:56:12;;;;;;;24.45;4.07;;;;;;;31.24;33.11;93258.47;5071404;28;20041;-59
2021/07/06 10:58:58;;;;;;;4.00;3.65;;;;;;;30.91;30.83;93265.84;5071163;28;20024;-48
2021/07/06 11:01:36;;;;;;;3.70;3.40;;;;;;;30.71;33.85;93259.78;5071663;28;20036;-44
2021/07/06 11:04:04;;;;;;;3.85;3.55;;;;;;;30.80;32.00;93266.38;5071125;28;20147;-48
2021/07/06 11:06:45;;;;;;;5.15;3.22;;;;;;;30.96;32.69;93258.78;5071415;28;20067;-49
2021/07/06 11:09:19;;;;;;;4.10;3.75;;;;;;;31.24;31.16;93256.34;5071106;28;20029;-49
2021/07/06 11:11:45;;;;;;;4.22;3.30;;;;;;;31.18;30.85;93238.44;5071076;28;20078;-50
2021/07/06 11:14:24;;;;;;;3.42;3.13;;;;;;;31.39;31.45;93255.13;5071400;28;20017;-47
2021/07/06 11:17:00;;;;;;;3.28;3.03;;;;;;;31.59;30.78;93257.56;5070768;28;20024;-50
2021/07/06 11:19:43;;;;;;;4.72;4.32;;;;;;;31.83;32.88;93257.84;5070919;28;20078;-47
2021/07/06 11:22:16;;;;;;;5.35;3.33;;;;;;;31.89;30.81;93252.19;5071384;28;20025;-48
2021/07/06 11:24:46;;;;;;;4.70;3.63;;;;;;;31.86;30.48;93250.03;5071015;28;20078;-52
2021/07/06 11:27:14;;;;;;;3.42;3.13;;;;;;;31.72;30.11;93255.56;5071092;28;20024;-48
2021/07/06 11:29:41;;;;;;;3.35;3.05;;;;;;;31.75;30.95;93254.19;5070975;28;20016;-57
2021/07/06 11:32:18;;;;;;;4.07;3.50;;;;;;;31.70;30.40;93261.25;5071046;28;20523;-57
2021/07/06 11:34:45;;;;;;;3.47;3.17;;;;;;;31.71;30.60;93259.81;5070860;28;20028;-56
2021/07/06 11:37:12;;;;;;;3.08;2.85;;;;;;;31.22;29.34;93261.31;5070806;28;20427;-54